Weather at Nanchong Gaoping Airport

Public forecast

Using degrees Celsius for public forecast. Weather courtesy of forecast.io.

Closest aviation weather report (METAR) to Nanchong Gaoping Airport

Report is more than 6 hours old.

Closest report is Dachuan Airport, 68.3 nm (126.4 km) ENE. Retrieved 2011/12/25 02:30 UTC (9 years ago):

ZUDX 250230Z 00000MPS 2000 BR FEW040 BKN050 06/04 Q1031 NOSIG

Closest aviation forecast (TAF) to Nanchong Gaoping Airport

Closest forecast is Chongqing Jiangbei International Airport, 69.2 nm (128.2 km) SSE. Retrieved 2021/04/13 18:03 UTC (2 hours ago):

TAF TAF ZUCK 131513Z 1318/1418 03003MPS 5000 BR OVC040 TX19/1407Z TN16/1321Z TEMPO 1319/1401 -SHRA